createdAt,value
2018-11-05T00:00:00.632Z,95.60
2018-11-05T00:02:28.865Z,95.60
2018-11-05T00:04:56.981Z,95.70
2018-11-05T00:07:25.140Z,95.90
2018-11-05T00:09:53.376Z,96.10
2018-11-05T00:12:21.598Z,96.40
2018-11-05T00:14:49.882Z,96.60
2018-11-05T00:17:18.113Z,96.60
2018-11-05T00:19:46.457Z,96.60
2018-11-05T00:22:14.694Z,96.60
2018-11-05T00:24:42.969Z,96.70
2018-11-05T00:27:11.223Z,96.80
2018-11-05T00:29:39.455Z,96.90
2018-11-05T00:32:07.722Z,97.00
2018-11-05T00:34:35.973Z,97.00
2018-11-05T00:37:04.209Z,97.00
2018-11-05T00:39:32.450Z,97.00
2018-11-05T00:42:00.644Z,97.10
2018-11-05T00:44:28.882Z,97.10
2018-11-05T00:46:57.129Z,97.10
2018-11-05T00:49:25.335Z,97.10
2018-11-05T00:51:53.558Z,97.20
2018-11-05T00:54:21.991Z,97.20
2018-11-05T00:56:50.235Z,97.20
2018-11-05T00:59:18.454Z,97.20
2018-11-05T01:01:47.341Z,97.20
2018-11-05T01:04:15.695Z,97.20
2018-11-05T01:06:43.951Z,97.20
2018-11-05T01:09:12.175Z,97.20
2018-11-05T01:11:40.346Z,97.20
2018-11-05T01:14:09.184Z,97.20
2018-11-05T01:16:37.431Z,97.20
2018-11-05T01:19:06.025Z,97.10
2018-11-05T01:21:34.538Z,97.10
2018-11-05T01:24:02.870Z,97.20
2018-11-05T01:26:31.150Z,97.20
2018-11-05T01:28:59.362Z,97.10
2018-11-05T01:31:27.563Z,97.10
2018-11-05T01:33:55.910Z,97.10
2018-11-05T01:36:24.208Z,97.10
2018-11-05T01:38:52.490Z,97.20
2018-11-05T01:41:20.902Z,97.20
2018-11-05T01:43:49.180Z,97.10
2018-11-05T01:46:17.413Z,97.10
2018-11-05T01:48:45.629Z,97.20
2018-11-05T01:51:13.974Z,97.10
2018-11-05T01:53:42.198Z,97.10
2018-11-05T01:56:10.453Z,97.10
2018-11-05T01:58:38.702Z,97.10
2018-11-05T02:01:06.976Z,97.10
2018-11-05T02:03:35.279Z,97.20
2018-11-05T02:06:03.529Z,97.20
2018-11-05T02:08:31.783Z,97.20
2018-11-05T02:10:59.994Z,97.50
2018-11-05T02:13:28.286Z,97.20
2018-11-05T02:15:56.665Z,97.10
2018-11-05T02:18:24.859Z,97.10
2018-11-05T02:20:53.109Z,97.00
2018-11-05T02:23:21.363Z,97.00
2018-11-05T02:25:49.602Z,96.90
2018-11-05T02:28:17.866Z,96.80
2018-11-05T02:30:46.154Z,96.90
2018-11-05T02:33:14.358Z,96.80
2018-11-05T02:35:42.643Z,96.90
2018-11-05T02:38:10.924Z,96.90
2018-11-05T02:40:39.198Z,96.90
2018-11-05T02:43:07.450Z,96.90
2018-11-05T02:45:35.714Z,96.90
2018-11-05T02:48:03.935Z,96.90
2018-11-05T02:50:32.211Z,96.80
2018-11-05T02:53:00.464Z,96.80
2018-11-05T02:55:28.652Z,96.80
2018-11-05T02:57:56.911Z,96.80
2018-11-05T03:00:25.163Z,96.80
2018-11-05T03:02:53.429Z,96.90
2018-11-05T03:05:21.734Z,96.90
2018-11-05T03:07:50.250Z,96.90
2018-11-05T03:10:18.493Z,96.90
2018-11-05T03:12:47.525Z,97.00
2018-11-05T03:15:16.882Z,96.90
2018-11-05T03:17:45.103Z,96.90
2018-11-05T03:20:14.186Z,96.90
2018-11-05T03:22:42.852Z,96.90
2018-11-05T03:25:11.176Z,96.80
2018-11-05T03:27:39.750Z,96.80
2018-11-05T03:30:10.488Z,96.80
2018-11-05T03:32:38.957Z,96.80
2018-11-05T03:35:07.574Z,96.80
2018-11-05T03:37:35.821Z,96.70
2018-11-05T03:40:04.563Z,96.60
2018-11-05T03:42:32.846Z,96.60
2018-11-05T03:45:01.091Z,96.70
2018-11-05T03:47:29.416Z,96.60
2018-11-05T03:49:57.623Z,96.50
2018-11-05T03:52:25.831Z,96.50
2018-11-05T03:54:54.103Z,96.60
2018-11-05T03:57:22.365Z,96.50
2018-11-05T03:59:50.597Z,96.60
2018-11-05T04:02:18.854Z,96.60
2018-11-05T04:04:47.104Z,96.50
2018-11-05T04:07:15.321Z,96.50
2018-11-05T04:09:43.583Z,96.50
2018-11-05T04:12:11.823Z,96.50
2018-11-05T04:14:40.089Z,96.60
2018-11-05T04:17:08.374Z,96.50
2018-11-05T04:19:36.622Z,96.50
2018-11-05T04:22:05.032Z,96.50
2018-11-05T04:24:33.317Z,96.40
2018-11-05T04:27:01.546Z,96.40
2018-11-05T04:29:29.757Z,96.40
2018-11-05T04:31:57.987Z,96.40
2018-11-05T04:34:26.279Z,96.40
2018-11-05T04:36:54.582Z,96.40
2018-11-05T04:39:22.859Z,96.40
2018-11-05T04:41:51.435Z,96.40
2018-11-05T04:44:19.661Z,96.40
2018-11-05T04:46:47.946Z,96.40
2018-11-05T04:49:16.169Z,96.50
2018-11-05T04:51:44.499Z,96.40
2018-11-05T04:54:12.937Z,96.20
2018-11-05T04:56:41.234Z,96.30
2018-11-05T04:59:09.543Z,96.20
2018-11-05T05:01:37.822Z,96.20
2018-11-05T05:04:06.070Z,96.20
2018-11-05T05:06:34.279Z,96.10
2018-11-05T05:09:02.550Z,96.10
2018-11-05T05:11:30.794Z,96.10
2018-11-05T05:13:59.045Z,96.10
2018-11-05T05:16:27.275Z,96.00
2018-11-05T05:18:55.594Z,95.90
2018-11-05T05:21:23.858Z,96.00
2018-11-05T05:23:52.133Z,96.00
2018-11-05T05:26:20.359Z,96.00
2018-11-05T05:28:48.602Z,96.10
2018-11-05T05:31:16.896Z,96.10
2018-11-05T05:33:45.157Z,96.20
2018-11-05T05:36:13.358Z,95.80
2018-11-05T05:38:41.615Z,95.80
2018-11-05T05:41:09.955Z,95.70
2018-11-05T05:43:39.305Z,95.80
2018-11-05T05:46:09.787Z,95.80
2018-11-05T05:48:38.026Z,95.80
2018-11-05T05:51:06.280Z,95.70
2018-11-05T05:53:39.347Z,95.70
2018-11-05T05:56:18.630Z,95.60
2018-11-05T06:01:51.053Z,95.50
2018-11-05T06:04:19.313Z,95.40
2018-11-05T06:06:47.807Z,95.40
2018-11-05T06:09:16.230Z,95.40
2018-11-05T06:11:44.711Z,95.50
2018-11-05T06:17:05.891Z,95.50
2018-11-05T06:19:34.043Z,95.70
2018-11-05T06:22:02.359Z,95.70
2018-11-05T06:24:30.450Z,95.70
2018-11-05T06:26:58.597Z,95.80
2018-11-05T06:29:26.735Z,95.80
2018-11-05T06:31:54.887Z,95.90
2018-11-05T06:34:23.202Z,95.70
2018-11-05T06:36:51.394Z,95.70
2018-11-05T06:39:19.520Z,95.80
2018-11-05T06:41:47.782Z,95.50
2018-11-05T06:44:16.238Z,95.80
2018-11-05T06:46:44.350Z,95.80
2018-11-05T06:49:12.749Z,95.80
2018-11-05T06:51:41.094Z,95.80
2018-11-05T06:54:09.236Z,95.80
2018-11-05T06:56:37.379Z,95.80
2018-11-05T06:59:05.517Z,95.70
2018-11-05T07:01:33.657Z,95.60
2018-11-05T07:04:01.795Z,95.60
2018-11-05T07:06:29.927Z,95.50
2018-11-05T07:08:58.062Z,95.50
2018-11-05T07:11:26.292Z,95.40
2018-11-05T07:13:54.350Z,95.50
2018-11-05T07:16:23.078Z,95.60
2018-11-05T07:18:51.484Z,95.50
2018-11-05T07:21:19.397Z,95.50
2018-11-05T07:23:47.644Z,95.50
2018-11-05T07:26:15.795Z,95.60
2018-11-05T07:28:44.241Z,95.60
2018-11-05T07:31:12.433Z,95.70
2018-11-05T07:33:40.697Z,95.70
2018-11-05T07:36:08.743Z,95.60
2018-11-05T07:38:36.881Z,95.60
2018-11-05T07:41:05.154Z,95.70
2018-11-05T07:43:33.302Z,95.70
2018-11-05T07:46:01.442Z,95.70
2018-11-05T07:48:29.579Z,95.80
2018-11-05T07:50:57.719Z,95.80
2018-11-05T07:53:25.872Z,95.70
2018-11-05T07:55:54.014Z,95.60
2018-11-05T07:58:22.165Z,95.50
2018-11-05T08:00:55.649Z,95.30
2018-11-05T08:03:24.222Z,95.20
2018-11-05T08:05:52.401Z,95.00
2018-11-05T08:08:20.601Z,94.80
2018-11-05T08:10:48.666Z,94.80
2018-11-05T08:13:16.814Z,94.60
2018-11-05T08:15:44.950Z,94.50
2018-11-05T08:18:13.085Z,94.40
2018-11-05T08:20:41.219Z,94.00
2018-11-05T08:23:09.366Z,93.90
2018-11-05T08:25:37.506Z,93.70
2018-11-05T08:28:06.338Z,93.50
2018-11-05T08:30:34.487Z,93.50
2018-11-05T08:33:02.639Z,93.60
2018-11-05T08:35:30.781Z,93.30
2018-11-05T08:37:58.922Z,92.90
2018-11-05T08:40:27.541Z,92.60
2018-11-05T08:42:56.364Z,93.00
2018-11-05T08:45:25.877Z,93.00
2018-11-05T08:47:54.014Z,92.60
2018-11-05T08:50:23.274Z,92.40
2018-11-05T08:52:51.334Z,92.40
2018-11-05T08:55:20.829Z,92.00
2018-11-05T08:57:49.100Z,91.90
2018-11-05T09:00:23.180Z,91.60
2018-11-05T09:02:51.649Z,91.50
2018-11-05T09:05:20.125Z,91.40
2018-11-05T09:07:48.781Z,91.60
2018-11-05T09:10:17.074Z,91.50
2018-11-05T09:12:45.125Z,91.40
2018-11-05T09:15:16.895Z,91.20
2018-11-05T09:17:45.499Z,91.20
2018-11-05T09:20:14.842Z,91.50
2018-11-05T09:22:42.986Z,91.50
2018-11-05T09:25:11.655Z,91.10
2018-11-05T09:27:39.801Z,91.40
2018-11-05T09:30:10.965Z,91.30
2018-11-05T09:32:39.098Z,91.20
2018-11-05T09:35:07.359Z,91.30
2018-11-05T09:37:35.501Z,91.00
2018-11-05T09:40:03.664Z,90.80
2018-11-05T09:42:31.870Z,90.70
2018-11-05T09:44:59.977Z,90.60
2018-11-05T09:47:28.105Z,90.80
2018-11-05T09:49:56.248Z,90.70
2018-11-05T09:52:24.391Z,91.00
2018-11-05T09:54:52.533Z,91.00
2018-11-05T09:57:20.834Z,91.10
2018-11-05T09:59:48.858Z,90.80
2018-11-05T10:02:17.043Z,90.70
2018-11-05T10:04:45.654Z,90.70
2018-11-05T10:07:13.341Z,90.10
2018-11-05T10:09:41.539Z,90.10
2018-11-05T10:12:09.628Z,90.30
2018-11-05T10:14:37.794Z,89.50
2018-11-05T10:17:06.352Z,90.00
2018-11-05T10:19:34.511Z,89.30
2018-11-05T10:22:02.672Z,89.50
2018-11-05T10:27:05.393Z,87.40
2018-11-05T10:29:33.561Z,87.70
2018-11-05T10:32:01.727Z,87.50
2018-11-05T10:34:29.866Z,87.50
2018-11-05T10:36:58.044Z,86.80
2018-11-05T10:39:26.162Z,86.00
2018-11-05T10:41:54.300Z,82.30
2018-11-05T10:44:22.449Z,81.10
2018-11-05T10:46:50.591Z,79.30
2018-11-05T10:49:18.733Z,78.90
2018-11-05T10:51:46.942Z,77.60
2018-11-05T10:54:16.461Z,76.60
2018-11-05T10:56:44.618Z,75.30
2018-11-05T10:59:12.743Z,73.70
2018-11-05T11:01:46.453Z,72.80
2018-11-05T11:04:20.298Z,73.20
2018-11-05T11:06:48.434Z,73.20
2018-11-05T11:09:16.557Z,72.80
2018-11-05T11:11:44.724Z,72.10
2018-11-05T11:14:12.868Z,72.00
2018-11-05T11:16:41.010Z,70.50
2018-11-05T11:19:09.174Z,69.50
2018-11-05T11:21:37.354Z,68.10
2018-11-05T11:24:05.658Z,66.30
2018-11-05T11:26:33.810Z,65.30
2018-11-05T11:29:02.141Z,64.50
2018-11-05T11:31:30.170Z,62.30
2018-11-05T11:33:58.308Z,61.00
2018-11-05T11:36:26.489Z,60.60
2018-11-05T11:38:54.635Z,60.80
2018-11-05T11:41:22.892Z,60.00
2018-11-05T11:43:51.117Z,59.50
2018-11-05T11:46:19.262Z,60.00
2018-11-05T11:48:47.410Z,59.80
2018-11-05T11:51:15.548Z,59.00
2018-11-05T11:53:43.683Z,59.30
2018-11-05T11:56:11.834Z,59.70
2018-11-05T11:58:39.954Z,58.40
2018-11-05T12:01:08.157Z,58.40
2018-11-05T12:03:36.294Z,57.60
2018-11-05T12:06:04.454Z,57.20
2018-11-05T12:08:32.591Z,57.80
2018-11-05T12:11:00.786Z,57.50
2018-11-05T12:13:28.943Z,56.60
2018-11-05T12:15:57.098Z,56.90
2018-11-05T12:18:25.238Z,56.50
2018-11-05T12:20:53.391Z,56.10
2018-11-05T12:23:21.530Z,56.00
2018-11-05T12:25:49.674Z,56.00
2018-11-05T12:28:17.822Z,56.60
2018-11-05T12:30:45.986Z,57.00
2018-11-05T12:33:14.134Z,57.40
2018-11-05T12:35:42.271Z,57.40
2018-11-05T12:38:10.681Z,57.40
2018-11-05T12:40:38.815Z,57.50
2018-11-05T12:43:06.947Z,57.50
2018-11-05T12:45:36.669Z,57.10
2018-11-05T12:48:05.090Z,57.40
2018-11-05T12:50:33.235Z,57.60
2018-11-05T12:53:01.418Z,57.70
2018-11-05T12:55:29.568Z,57.50
2018-11-05T12:57:57.686Z,57.80
2018-11-05T13:00:26.114Z,58.10
2018-11-05T13:02:55.275Z,58.60
2018-11-05T13:05:24.209Z,58.30
2018-11-05T13:07:52.438Z,58.40
2018-11-05T13:10:20.692Z,58.40
2018-11-05T13:12:48.935Z,58.40
2018-11-05T13:15:17.167Z,58.40
2018-11-05T13:17:45.274Z,58.20
2018-11-05T13:20:16.141Z,57.90
2018-11-05T13:22:44.451Z,58.40
2018-11-05T13:25:12.699Z,58.60
2018-11-05T13:27:42.257Z,58.90
2018-11-05T13:30:11.333Z,59.40
2018-11-05T13:32:39.954Z,60.30
2018-11-05T13:35:09.642Z,60.00
2018-11-05T13:37:38.203Z,60.60
2018-11-05T13:40:07.435Z,61.20
2018-11-05T13:42:35.578Z,62.80
2018-11-05T13:45:03.785Z,63.30
2018-11-05T13:47:32.675Z,64.10
2018-11-05T13:50:00.209Z,65.10
2018-11-05T13:52:28.253Z,65.60
2018-11-05T13:54:56.711Z,66.10
2018-11-05T13:57:24.481Z,67.10
2018-11-05T13:59:52.673Z,67.20
2018-11-05T14:02:20.869Z,67.20
2018-11-05T14:04:48.935Z,68.50
2018-11-05T14:07:17.082Z,69.70
2018-11-05T14:09:45.210Z,70.20
2018-11-05T14:12:13.654Z,70.50
2018-11-05T14:14:41.910Z,70.60
2018-11-05T14:17:10.066Z,70.40
2018-11-05T14:19:38.183Z,70.90
2018-11-05T14:22:06.311Z,71.10
2018-11-05T14:24:34.452Z,71.50
2018-11-05T14:27:02.608Z,71.80
2018-11-05T14:29:31.158Z,72.70
2018-11-05T14:31:58.944Z,72.90
2018-11-05T14:34:27.111Z,73.10
2018-11-05T14:36:55.354Z,73.80
2018-11-05T14:39:23.380Z,74.80
2018-11-05T14:41:51.526Z,74.30
2018-11-05T14:44:19.691Z,74.50
2018-11-05T14:46:47.975Z,74.80
2018-11-05T14:49:16.119Z,75.40
2018-11-05T14:51:44.299Z,76.00
2018-11-05T14:54:12.497Z,76.60
2018-11-05T14:56:40.625Z,77.10
2018-11-05T14:59:08.773Z,77.50
2018-11-05T15:01:36.966Z,78.60
2018-11-05T15:04:05.250Z,79.40
2018-11-05T15:06:33.415Z,80.30
2018-11-05T15:09:01.564Z,80.90
2018-11-05T15:11:29.959Z,82.40
2018-11-05T15:13:58.075Z,82.20
2018-11-05T15:16:26.238Z,82.80
2018-11-05T15:18:54.740Z,83.20
2018-11-05T15:21:22.563Z,83.60
2018-11-05T15:23:50.746Z,84.30
2018-11-05T15:26:18.877Z,84.60
2018-11-05T15:28:47.078Z,84.90
2018-11-05T15:31:15.922Z,86.50
2018-11-05T15:33:44.127Z,86.00
2018-11-05T15:36:12.275Z,86.20
2018-11-05T15:38:40.412Z,87.20
2018-11-05T15:41:08.564Z,86.80
2018-11-05T15:43:36.698Z,87.60
2018-11-05T15:46:05.690Z,87.20
2018-11-05T15:48:34.182Z,87.90
2018-11-05T15:51:02.428Z,87.90
2018-11-05T15:53:31.073Z,88.20
2018-11-05T15:55:58.699Z,88.20
2018-11-05T15:58:26.850Z,88.70
2018-11-05T16:00:54.986Z,88.90
2018-11-05T16:03:23.143Z,89.40
2018-11-05T16:05:51.284Z,89.70
2018-11-05T16:08:19.420Z,90.20
2018-11-05T16:10:47.558Z,90.10
2018-11-05T16:13:15.686Z,90.50
2018-11-05T16:15:43.899Z,90.70
2018-11-05T16:18:12.071Z,91.30
2018-11-05T16:20:40.180Z,91.30
2018-11-05T16:23:08.318Z,91.50
2018-11-05T16:25:36.584Z,91.60
2018-11-05T16:28:05.575Z,91.80
2018-11-05T16:30:33.773Z,92.00
2018-11-05T16:33:01.851Z,92.00
2018-11-05T16:35:29.991Z,92.10
2018-11-05T16:37:58.130Z,92.30
2018-11-05T16:40:26.285Z,92.50
2018-11-05T16:42:54.408Z,92.60
2018-11-05T16:45:22.670Z,92.60
2018-11-05T16:47:51.006Z,92.80
2018-11-05T16:50:24.814Z,92.90
2018-11-05T16:52:52.938Z,92.80
2018-11-05T16:55:21.139Z,93.10
2018-11-05T16:57:49.314Z,93.20
2018-11-05T17:00:18.151Z,93.20
2018-11-05T17:02:47.352Z,93.40
2018-11-05T17:05:15.207Z,93.50
2018-11-05T17:07:43.351Z,93.60
2018-11-05T17:10:12.614Z,93.80
2018-11-05T17:12:41.238Z,94.00
2018-11-05T17:15:10.998Z,94.00
2018-11-05T17:17:39.519Z,94.10
2018-11-05T17:20:09.415Z,94.20
2018-11-05T17:22:37.701Z,94.30
2018-11-05T17:25:06.439Z,94.50
2018-11-05T17:27:34.621Z,94.40
2018-11-05T17:30:02.926Z,94.40
2018-11-05T17:32:31.061Z,94.60
2018-11-05T17:34:59.210Z,94.50
2018-11-05T17:37:27.372Z,94.60
2018-11-05T17:39:55.550Z,94.70
2018-11-05T17:42:23.661Z,94.50
2018-11-05T17:44:51.805Z,94.70
2018-11-05T17:47:19.957Z,94.80
2018-11-05T17:49:48.141Z,95.00
2018-11-05T17:52:16.391Z,95.10
2018-11-05T17:54:44.601Z,94.80
2018-11-05T17:57:13.379Z,94.70
2018-11-05T17:59:41.551Z,94.60
2018-11-05T18:02:13.932Z,94.70
2018-11-05T18:04:42.109Z,94.90
2018-11-05T18:07:10.267Z,94.90
2018-11-05T18:09:38.403Z,95.00
2018-11-05T18:12:06.646Z,95.00
2018-11-05T18:14:34.793Z,94.90
2018-11-05T18:17:02.940Z,94.80
2018-11-05T18:19:31.082Z,94.90
2018-11-05T18:21:59.215Z,94.70
2018-11-05T18:24:27.445Z,94.80
2018-11-05T18:26:55.522Z,94.90
2018-11-05T18:29:23.675Z,94.90
2018-11-05T18:31:52.066Z,95.30
2018-11-05T18:34:20.271Z,95.40
2018-11-05T18:36:48.745Z,95.20
2018-11-05T18:39:16.937Z,95.00
2018-11-05T18:41:45.119Z,95.00
2018-11-05T18:44:13.332Z,95.00
2018-11-05T18:46:41.579Z,95.10
2018-11-05T18:49:09.747Z,95.20
2018-11-05T18:51:37.949Z,95.30
2018-11-05T18:54:06.088Z,95.30
2018-11-05T18:56:34.407Z,95.10
2018-11-05T18:59:02.723Z,95.10
2018-11-05T19:01:30.898Z,95.00
2018-11-05T19:03:59.063Z,94.90
2018-11-05T19:06:27.339Z,95.10
2018-11-05T19:08:55.558Z,95.50
2018-11-05T19:11:23.739Z,95.60
2018-11-05T19:13:52.141Z,95.70
2018-11-05T19:16:20.443Z,95.70
2018-11-05T19:18:48.633Z,95.50
2018-11-05T19:21:16.831Z,95.40
2018-11-05T19:23:45.137Z,95.30
2018-11-05T19:26:13.255Z,95.40
2018-11-05T19:28:41.586Z,95.60
2018-11-05T19:35:54.727Z,95.80
2018-11-05T19:38:22.930Z,96.10
2018-11-05T19:40:51.207Z,96.10
2018-11-05T19:43:19.546Z,96.00
2018-11-05T19:45:47.699Z,95.80
2018-11-05T19:48:15.844Z,95.80
2018-11-05T19:50:44.026Z,95.90
2018-11-05T19:53:12.242Z,96.10
2018-11-05T19:55:40.503Z,96.20
2018-11-05T19:58:08.683Z,96.00
2018-11-05T20:00:36.936Z,96.10
2018-11-05T20:03:05.190Z,95.90
2018-11-05T20:05:33.439Z,95.80
2018-11-05T20:08:01.839Z,95.80
2018-11-05T20:10:30.106Z,95.80
2018-11-05T20:12:58.288Z,95.90
2018-11-05T20:15:26.827Z,95.90
2018-11-05T20:17:55.748Z,95.90
2018-11-05T20:20:24.867Z,95.80
2018-11-05T20:22:53.233Z,95.70
2018-11-05T20:25:21.479Z,95.70
2018-11-05T20:27:49.634Z,95.80
2018-11-05T20:30:22.188Z,95.80
2018-11-05T20:32:51.689Z,95.90
2018-11-05T20:35:19.723Z,95.80
2018-11-05T20:37:47.947Z,95.80
2018-11-05T20:40:17.366Z,95.80
2018-11-05T20:42:46.889Z,95.80
2018-11-05T20:45:15.725Z,95.90
2018-11-05T20:47:44.326Z,95.90
2018-11-05T20:50:13.571Z,95.80
2018-11-05T20:52:41.735Z,95.80
2018-11-05T20:55:11.085Z,95.80
2018-11-05T20:57:39.690Z,95.70
2018-11-05T21:00:20.977Z,95.70
2018-11-05T21:02:49.263Z,95.70
2018-11-05T21:05:17.504Z,95.80
2018-11-05T21:07:45.716Z,95.80
2018-11-05T21:10:14.654Z,95.90
2018-11-05T21:12:43.493Z,96.00
2018-11-05T21:15:14.869Z,95.90
2018-11-05T21:17:44.151Z,95.90
2018-11-05T21:20:12.528Z,95.80
2018-11-05T21:22:40.851Z,95.80
2018-11-05T21:25:09.178Z,95.80
2018-11-05T21:27:37.334Z,95.90
2018-11-05T21:30:07.758Z,95.90
2018-11-05T21:32:35.930Z,96.00
2018-11-05T21:35:04.484Z,96.30
2018-11-05T21:37:32.633Z,96.50
2018-11-05T21:40:00.781Z,96.30
2018-11-05T21:42:28.929Z,96.20
2018-11-05T21:44:57.181Z,96.10
2018-11-05T21:47:25.377Z,96.00
2018-11-05T21:49:53.478Z,96.00
2018-11-05T21:52:21.637Z,96.20
2018-11-05T21:54:49.770Z,96.20
2018-11-05T21:57:17.920Z,96.20
2018-11-05T21:59:46.062Z,96.20
2018-11-05T22:02:14.193Z,96.10
2018-11-05T22:04:42.332Z,96.20
2018-11-05T22:07:10.524Z,96.40
2018-11-05T22:09:38.687Z,96.40
2018-11-05T22:12:06.895Z,96.40
2018-11-05T22:14:35.026Z,96.70
2018-11-05T22:17:05.942Z,96.90
2018-11-05T22:19:34.354Z,96.90
2018-11-05T22:22:02.501Z,97.00
2018-11-05T22:24:30.694Z,97.10
2018-11-05T22:26:58.853Z,97.30
2018-11-05T22:29:27.049Z,97.40
2018-11-05T22:31:55.355Z,97.50
2018-11-05T22:34:23.489Z,97.80
2018-11-05T22:36:51.641Z,98.00
2018-11-05T22:39:19.797Z,98.00
2018-11-05T22:41:47.942Z,98.00
2018-11-05T22:44:16.159Z,98.10
2018-11-05T22:46:44.301Z,98.10
2018-11-05T22:49:12.454Z,98.10
2018-11-05T22:51:40.626Z,98.00
2018-11-05T22:54:08.837Z,98.00
2018-11-05T22:56:36.972Z,97.90
2018-11-05T22:59:05.125Z,98.00
2018-11-05T23:01:38.850Z,98.00
2018-11-05T23:04:07.066Z,98.00
2018-11-05T23:06:35.202Z,97.90
2018-11-05T23:09:05.190Z,97.90
2018-11-05T23:11:33.369Z,97.90
2018-11-05T23:14:01.512Z,97.90
2018-11-05T23:16:29.744Z,97.90
2018-11-05T23:18:57.875Z,97.90
2018-11-05T23:21:26.090Z,97.80
2018-11-05T23:23:54.246Z,97.70
2018-11-05T23:26:22.450Z,97.70
2018-11-05T23:28:50.830Z,97.70
2018-11-05T23:31:18.966Z,97.70
2018-11-05T23:33:47.402Z,97.70
2018-11-05T23:36:15.954Z,97.70
2018-11-05T23:38:44.104Z,97.90
2018-11-05T23:41:12.311Z,97.70
2018-11-05T23:43:40.889Z,97.70
2018-11-05T23:46:09.040Z,97.70
2018-11-05T23:48:37.180Z,97.80
2018-11-05T23:51:05.481Z,97.80
2018-11-05T23:53:34.080Z,97.80
2018-11-05T23:56:02.571Z,98.10
2018-11-05T23:58:30.706Z,97.80
